sensor_id;sensor_type;location;lat;lon;timestamp;pressure;altitude;pressure_sealevel;temperature;humidity
14041;BME280;7095;51.388;6.196;2023-02-28T00:01:34;54546.97;;;-145.32;100.00
14041;BME280;7095;51.388;6.196;2023-02-28T00:04:04;54503.22;;;-145.32;100.00
14041;BME280;7095;51.388;6.196;2023-02-28T00:06:33;54513.16;;;-145.32;100.00
14041;BME280;7095;51.388;6.196;2023-02-28T00:09:02;54517.16;;;-145.32;100.00
14041;BME280;7095;51.388;6.196;2023-02-28T00:11:30;54515.16;;;-145.32;100.00
14041;BME280;7095;51.388;6.196;2023-02-28T00:13:59;54527.09;;;-145.32;100.00
14041;BME280;7095;51.388;6.196;2023-02-28T00:16:28;54556.91;;;-145.32;100.00
14041;BME280;7095;51.388;6.196;2023-02-28T00:18:56;54568.84;;;-145.32;100.00
14041;BME280;7095;51.388;6.196;2023-02-28T00:21:26;54582.78;;;-145.32;100.00
14041;BME280;7095;51.388;6.196;2023-02-28T00:23:55;54596.69;;;-145.32;100.00
14041;BME280;7095;51.388;6.196;2023-02-28T00:26:23;54580.78;;;-145.32;100.00
14041;BME280;7095;51.388;6.196;2023-02-28T00:28:52;54572.81;;;-145.32;100.00
14041;BME280;7095;51.388;6.196;2023-02-28T00:31:22;54554.94;;;-145.32;100.00
14041;BME280;7095;51.388;6.196;2023-02-28T00:33:51;54537.03;;;-145.32;100.00
14041;BME280;7095;51.388;6.196;2023-02-28T00:36:20;54505.22;;;-145.32;100.00
14041;BME280;7095;51.388;6.196;2023-02-28T00:38:50;54533.06;;;-145.32;100.00
14041;BME280;7095;51.388;6.196;2023-02-28T00:41:18;54586.75;;;-145.32;100.00
14041;BME280;7095;51.388;6.196;2023-02-28T00:43:47;54570.84;;;-145.32;100.00
14041;BME280;7095;51.388;6.196;2023-02-28T00:46:16;54568.84;;;-145.32;100.00
14041;BME280;7095;51.388;6.196;2023-02-28T00:48:44;54564.88;;;-145.32;100.00
14041;BME280;7095;51.388;6.196;2023-02-28T00:51:14;54568.84;;;-145.32;100.00
14041;BME280;7095;51.388;6.196;2023-02-28T00:53:42;54558.91;;;-145.32;100.00
14041;BME280;7095;51.388;6.196;2023-02-28T00:56:12;54564.88;;;-145.32;100.00
14041;BME280;7095;51.388;6.196;2023-02-28T00:58:41;54610.63;;;-145.32;100.00
14041;BME280;7095;51.388;6.196;2023-02-28T01:01:09;54558.91;;;-145.32;100.00
14041;BME280;7095;51.388;6.196;2023-02-28T01:03:38;54525.09;;;-145.32;100.00
14041;BME280;7095;51.388;6.196;2023-02-28T01:06:06;54584.75;;;-145.32;100.00
14041;BME280;7095;51.388;6.196;2023-02-28T01:08:35;54590.72;;;-145.32;100.00
14041;BME280;7095;51.388;6.196;2023-02-28T01:11:08;54584.75;;;-145.32;100.00
14041;BME280;7095;51.388;6.196;2023-02-28T01:13:41;54600.66;;;-145.32;100.00
14041;BME280;7095;51.388;6.196;2023-02-28T01:16:12;54574.81;;;-145.32;100.00
14041;BME280;7095;51.388;6.196;2023-02-28T01:18:40;54546.97;;;-145.32;100.00
14041;BME280;7095;51.388;6.196;2023-02-28T01:21:11;54574.81;;;-145.32;100.00
14041;BME280;7095;51.388;6.196;2023-02-28T01:23:40;54543.00;;;-145.32;100.00
14041;BME280;7095;51.388;6.196;2023-02-28T01:26:11;54582.78;;;-145.32;100.00
14041;BME280;7095;51.388;6.196;2023-02-28T01:28:42;54602.66;;;-145.32;100.00
14041;BME280;7095;51.388;6.196;2023-02-28T01:31:11;54566.84;;;-145.32;100.00
14041;BME280;7095;51.388;6.196;2023-02-28T01:33:40;54622.53;;;-145.32;100.00
14041;BME280;7095;51.388;6.196;2023-02-28T01:36:11;54596.69;;;-145.32;100.00
14041;BME280;7095;51.388;6.196;2023-02-28T01:38:40;54580.78;;;-145.32;100.00
14041;BME280;7095;51.388;6.196;2023-02-28T01:41:16;54602.66;;;-145.32;100.00
14041;BME280;7095;51.388;6.196;2023-02-28T01:44:01;54584.75;;;-145.32;100.00
14041;BME280;7095;51.388;6.196;2023-02-28T01:46:34;54602.66;;;-145.32;100.00
14041;BME280;7095;51.388;6.196;2023-02-28T01:49:07;54598.69;;;-145.32;100.00
14041;BME280;7095;51.388;6.196;2023-02-28T01:51:42;54598.69;;;-145.32;100.00
14041;BME280;7095;51.388;6.196;2023-02-28T01:54:21;54592.72;;;-145.32;100.00
14041;BME280;7095;51.388;6.196;2023-02-28T01:56:54;54576.81;;;-145.32;100.00
14041;BME280;7095;51.388;6.196;2023-02-28T01:59:28;54648.41;;;-145.32;100.00
14041;BME280;7095;51.388;6.196;2023-02-28T02:02:00;54620.56;;;-145.32;100.00
14041;BME280;7095;51.388;6.196;2023-02-28T02:04:35;54624.53;;;-145.32;100.00
14041;BME280;7095;51.388;6.196;2023-02-28T02:07:05;54592.72;;;-145.32;100.00
14041;BME280;7095;51.388;6.196;2023-02-28T02:09:34;54596.69;;;-145.32;100.00
14041;BME280;7095;51.388;6.196;2023-02-28T02:12:09;54630.50;;;-145.32;100.00
14041;BME280;7095;51.388;6.196;2023-02-28T02:14:53;54632.50;;;-145.32;100.00
14041;BME280;7095;51.388;6.196;2023-02-28T02:17:30;54626.53;;;-145.32;100.00
14041;BME280;7095;51.388;6.196;2023-02-28T02:26:18;54630.50;;;-145.32;100.00
14041;BME280;7095;51.388;6.196;2023-02-28T02:29:03;54652.38;;;-145.32;100.00
14041;BME280;7095;51.388;6.196;2023-02-28T02:31:58;54628.50;;;-145.32;100.00
14041;BME280;7095;51.388;6.196;2023-02-28T02:34:42;54646.41;;;-145.32;100.00
14041;BME280;7095;51.388;6.196;2023-02-28T02:37:19;54626.53;;;-145.32;100.00
14041;BME280;7095;51.388;6.196;2023-02-28T02:39:53;54614.59;;;-145.32;100.00
14041;BME280;7095;51.388;6.196;2023-02-28T02:42:33;54604.66;;;-145.32;100.00
14041;BME280;7095;51.388;6.196;2023-02-28T02:45:07;54600.66;;;-145.32;100.00
14041;BME280;7095;51.388;6.196;2023-02-28T02:47:38;54594.69;;;-145.32;100.00
14041;BME280;7095;51.388;6.196;2023-02-28T02:50:13;54604.66;;;-145.32;100.00
14041;BME280;7095;51.388;6.196;2023-02-28T02:52:46;54628.50;;;-145.32;100.00
14041;BME280;7095;51.388;6.196;2023-02-28T02:55:17;54614.59;;;-145.32;100.00
14041;BME280;7095;51.388;6.196;2023-02-28T02:57:50;54588.75;;;-145.32;100.00
14041;BME280;7095;51.388;6.196;2023-02-28T03:00:23;54630.50;;;-145.32;100.00
14041;BME280;7095;51.388;6.196;2023-02-28T03:02:54;54592.72;;;-145.32;100.00
14041;BME280;7095;51.388;6.196;2023-02-28T03:05:28;54616.56;;;-145.32;100.00
14041;BME280;7095;51.388;6.196;2023-02-28T03:07:58;54584.75;;;-145.32;100.00
14041;BME280;7095;51.388;6.196;2023-02-28T03:10:38;54582.78;;;-145.32;100.00
14041;BME280;7095;51.388;6.196;2023-02-28T03:13:17;54610.63;;;-145.32;100.00
14041;BME280;7095;51.388;6.196;2023-02-28T03:16:01;54676.25;;;-145.32;100.00
14041;BME280;7095;51.388;6.196;2023-02-28T03:18:41;54672.25;;;-145.32;100.00
14041;BME280;7095;51.388;6.196;2023-02-28T03:21:23;54672.25;;;-145.32;100.00
14041;BME280;7095;51.388;6.196;2023-02-28T03:24:00;54618.56;;;-145.32;100.00
14041;BME280;7095;51.388;6.196;2023-02-28T03:26:34;54604.66;;;-145.32;100.00
14041;BME280;7095;51.388;6.196;2023-02-28T03:29:10;54632.50;;;-145.32;100.00
14041;BME280;7095;51.388;6.196;2023-02-28T03:31:48;54656.34;;;-145.32;100.00
14041;BME280;7095;51.388;6.196;2023-02-28T03:34:24;54648.41;;;-145.32;100.00
14041;BME280;7095;51.388;6.196;2023-02-28T03:37:02;54664.31;;;-145.32;100.00
14041;BME280;7095;51.388;6.196;2023-02-28T03:39:37;54640.44;;;-145.32;100.00
14041;BME280;7095;51.388;6.196;2023-02-28T03:42:09;54668.28;;;-145.32;100.00
14041;BME280;7095;51.388;6.196;2023-02-28T03:44:42;54664.31;;;-145.32;100.00
14041;BME280;7095;51.388;6.196;2023-02-28T03:47:14;54674.25;;;-145.32;100.00
14041;BME280;7095;51.388;6.196;2023-02-28T03:49:47;54672.25;;;-145.32;100.00
14041;BME280;7095;51.388;6.196;2023-02-28T03:52:21;54708.06;;;-145.32;100.00
14041;BME280;7095;51.388;6.196;2023-02-28T03:54:54;54700.09;;;-145.32;100.00
14041;BME280;7095;51.388;6.196;2023-02-28T03:57:36;54660.31;;;-145.32;100.00
14041;BME280;7095;51.388;6.196;2023-02-28T04:00:09;54664.31;;;-145.32;100.00
14041;BME280;7095;51.388;6.196;2023-02-28T04:02:41;54588.75;;;-145.32;100.00
14041;BME280;7095;51.388;6.196;2023-02-28T04:05:09;54636.47;;;-145.32;100.00
14041;BME280;7095;51.388;6.196;2023-02-28T04:07:39;54664.31;;;-145.32;100.00
14041;BME280;7095;51.388;6.196;2023-02-28T04:10:09;54656.34;;;-145.32;100.00
14041;BME280;7095;51.388;6.196;2023-02-28T04:12:38;54662.31;;;-145.32;100.00
14041;BME280;7095;51.388;6.196;2023-02-28T04:15:07;54648.41;;;-145.32;100.00
14041;BME280;7095;51.388;6.196;2023-02-28T04:17:37;54666.28;;;-145.32;100.00
14041;BME280;7095;51.388;6.196;2023-02-28T04:20:06;54668.28;;;-145.32;100.00
14041;BME280;7095;51.388;6.196;2023-02-28T04:22:38;54620.56;;;-145.32;100.00
14041;BME280;7095;51.388;6.196;2023-02-28T04:25:08;54630.50;;;-145.32;100.00
14041;BME280;7095;51.388;6.196;2023-02-28T04:27:36;54612.59;;;-145.32;100.00
14041;BME280;7095;51.388;6.196;2023-02-28T04:30:06;54626.53;;;-145.32;100.00
14041;BME280;7095;51.388;6.196;2023-02-28T04:32:35;54628.50;;;-145.32;100.00
14041;BME280;7095;51.388;6.196;2023-02-28T04:35:04;54618.56;;;-145.32;100.00
14041;BME280;7095;51.388;6.196;2023-02-28T04:37:33;54630.50;;;-145.32;100.00
14041;BME280;7095;51.388;6.196;2023-02-28T04:40:03;54662.31;;;-145.32;100.00
14041;BME280;7095;51.388;6.196;2023-02-28T04:42:32;54670.28;;;-145.32;100.00
14041;BME280;7095;51.388;6.196;2023-02-28T04:45:03;54648.41;;;-145.32;100.00
14041;BME280;7095;51.388;6.196;2023-02-28T04:47:32;54690.16;;;-145.32;100.00
14041;BME280;7095;51.388;6.196;2023-02-28T04:50:00;54664.31;;;-145.32;100.00
14041;BME280;7095;51.388;6.196;2023-02-28T04:52:28;54636.47;;;-145.32;100.00
14041;BME280;7095;51.388;6.196;2023-02-28T04:55:03;54652.38;;;-145.32;100.00
14041;BME280;7095;51.388;6.196;2023-02-28T04:57:32;54642.44;;;-145.32;100.00
14041;BME280;7095;51.388;6.196;2023-02-28T05:00:01;54676.25;;;-145.32;100.00
14041;BME280;7095;51.388;6.196;2023-02-28T05:02:34;54676.25;;;-145.32;100.00
14041;BME280;7095;51.388;6.196;2023-02-28T05:05:03;54660.31;;;-145.32;100.00
14041;BME280;7095;51.388;6.196;2023-02-28T05:07:31;54656.34;;;-145.32;100.00
14041;BME280;7095;51.388;6.196;2023-02-28T05:10:00;54676.25;;;-145.32;100.00
14041;BME280;7095;51.388;6.196;2023-02-28T05:12:29;54632.50;;;-145.32;100.00
14041;BME280;7095;51.388;6.196;2023-02-28T05:14:58;54676.25;;;-145.32;100.00
14041;BME280;7095;51.388;6.196;2023-02-28T05:17:28;54640.44;;;-145.32;100.00
14041;BME280;7095;51.388;6.196;2023-02-28T05:19:57;54634.47;;;-145.32;100.00
14041;BME280;7095;51.388;6.196;2023-02-28T05:22:41;54636.47;;;-145.32;100.00
14041;BME280;7095;51.388;6.196;2023-02-28T05:25:10;54656.34;;;-145.32;100.00
14041;BME280;7095;51.388;6.196;2023-02-28T05:27:43;54624.53;;;-145.32;100.00
14041;BME280;7095;51.388;6.196;2023-02-28T05:30:12;54646.41;;;-145.32;100.00
14041;BME280;7095;51.388;6.196;2023-02-28T05:32:41;54628.50;;;-145.32;100.00
14041;BME280;7095;51.388;6.196;2023-02-28T05:35:12;54618.56;;;-145.32;100.00
14041;BME280;7095;51.388;6.196;2023-02-28T05:37:41;54648.41;;;-145.32;100.00
14041;BME280;7095;51.388;6.196;2023-02-28T05:40:10;54636.47;;;-145.32;100.00
14041;BME280;7095;51.388;6.196;2023-02-28T05:42:39;54592.72;;;-145.32;100.00
14041;BME280;7095;51.388;6.196;2023-02-28T05:45:10;54612.59;;;-145.32;100.00
14041;BME280;7095;51.388;6.196;2023-02-28T05:47:41;54628.50;;;-145.32;100.00
14041;BME280;7095;51.388;6.196;2023-02-28T05:50:10;54632.50;;;-145.32;100.00
14041;BME280;7095;51.388;6.196;2023-02-28T05:52:38;54616.56;;;-145.32;100.00
14041;BME280;7095;51.388;6.196;2023-02-28T05:55:08;54602.66;;;-145.32;100.00
14041;BME280;7095;51.388;6.196;2023-02-28T05:57:36;54620.56;;;-145.32;100.00
14041;BME280;7095;51.388;6.196;2023-02-28T06:00:06;54644.41;;;-145.32;100.00
14041;BME280;7095;51.388;6.196;2023-02-28T06:02:39;54612.59;;;-145.32;100.00
14041;BME280;7095;51.388;6.196;2023-02-28T06:05:13;54656.34;;;-145.32;100.00
14041;BME280;7095;51.388;6.196;2023-02-28T06:07:42;54602.66;;;-145.32;100.00
14041;BME280;7095;51.388;6.196;2023-02-28T06:10:11;54604.66;;;-145.32;100.00
14041;BME280;7095;51.388;6.196;2023-02-28T06:12:40;54632.50;;;-145.32;100.00
14041;BME280;7095;51.388;6.196;2023-02-28T06:15:12;54620.56;;;-145.32;100.00
14041;BME280;7095;51.388;6.196;2023-02-28T06:17:42;54634.47;;;-145.32;100.00
14041;BME280;7095;51.388;6.196;2023-02-28T06:20:12;54640.44;;;-145.32;100.00
14041;BME280;7095;51.388;6.196;2023-02-28T06:22:41;54628.50;;;-145.32;100.00
14041;BME280;7095;51.388;6.196;2023-02-28T06:25:10;54640.44;;;-145.32;100.00
14041;BME280;7095;51.388;6.196;2023-02-28T06:27:38;54608.63;;;-145.32;100.00
14041;BME280;7095;51.388;6.196;2023-02-28T06:30:08;54636.47;;;-145.32;100.00
14041;BME280;7095;51.388;6.196;2023-02-28T06:32:37;54596.69;;;-145.32;100.00
14041;BME280;7095;51.388;6.196;2023-02-28T06:35:08;54628.50;;;-145.32;100.00
14041;BME280;7095;51.388;6.196;2023-02-28T06:37:37;54636.47;;;-145.32;100.00
14041;BME280;7095;51.388;6.196;2023-02-28T06:40:09;54590.72;;;-145.32;100.00
14041;BME280;7095;51.388;6.196;2023-02-28T06:42:38;54652.38;;;-145.32;100.00
14041;BME280;7095;51.388;6.196;2023-02-28T06:45:07;54612.59;;;-145.32;100.00
14041;BME280;7095;51.388;6.196;2023-02-28T06:47:38;54620.56;;;-145.32;100.00
14041;BME280;7095;51.388;6.196;2023-02-28T06:50:10;54632.50;;;-145.32;100.00
14041;BME280;7095;51.388;6.196;2023-02-28T06:52:39;54624.53;;;-145.32;100.00
14041;BME280;7095;51.388;6.196;2023-02-28T06:55:08;54612.59;;;-145.32;100.00
14041;BME280;7095;51.388;6.196;2023-02-28T06:57:37;54612.59;;;-145.32;100.00
14041;BME280;7095;51.388;6.196;2023-02-28T07:00:08;54628.50;;;-145.32;100.00
14041;BME280;7095;51.388;6.196;2023-02-28T07:02:37;54616.56;;;-145.32;100.00
14041;BME280;7095;51.388;6.196;2023-02-28T07:05:06;54640.44;;;-145.32;100.00
14041;BME280;7095;51.388;6.196;2023-02-28T07:07:36;54648.41;;;-145.32;100.00
14041;BME280;7095;51.388;6.196;2023-02-28T07:10:08;54640.44;;;-145.32;100.00
14041;BME280;7095;51.388;6.196;2023-02-28T07:12:38;54626.53;;;-145.32;100.00
14041;BME280;7095;51.388;6.196;2023-02-28T07:15:07;54616.56;;;-145.32;100.00
14041;BME280;7095;51.388;6.196;2023-02-28T07:17:36;54658.34;;;-145.32;100.00
14041;BME280;7095;51.388;6.196;2023-02-28T07:20:05;54652.38;;;-145.32;100.00
14041;BME280;7095;51.388;6.196;2023-02-28T07:22:35;54640.44;;;-145.32;100.00
14041;BME280;7095;51.388;6.196;2023-02-28T07:25:06;54680.22;;;-145.32;100.00
14041;BME280;7095;51.388;6.196;2023-02-28T07:27:34;54688.16;;;-145.32;100.00
14041;BME280;7095;51.388;6.196;2023-02-28T07:30:04;54708.06;;;-145.32;100.00
14041;BME280;7095;51.388;6.196;2023-02-28T07:32:33;54735.91;;;-145.32;100.00
14041;BME280;7095;51.388;6.196;2023-02-28T07:35:05;54721.97;;;-145.32;100.00
14041;BME280;7095;51.388;6.196;2023-02-28T07:37:35;54729.94;;;-145.32;100.00
14041;BME280;7095;51.388;6.196;2023-02-28T07:40:06;54708.06;;;-145.32;100.00
14041;BME280;7095;51.388;6.196;2023-02-28T07:42:36;54710.06;;;-145.32;100.00
14041;BME280;7095;51.388;6.196;2023-02-28T07:45:05;54666.28;;;-145.32;100.00
14041;BME280;7095;51.388;6.196;2023-02-28T07:47:34;54694.13;;;-145.32;100.00
14041;BME280;7095;51.388;6.196;2023-02-28T07:50:03;54650.38;;;-145.32;100.00
14041;BME280;7095;51.388;6.196;2023-02-28T07:52:31;54638.44;;;-145.32;100.00
14041;BME280;7095;51.388;6.196;2023-02-28T07:55:02;54644.41;;;-145.32;100.00
14041;BME280;7095;51.388;6.196;2023-02-28T07:57:31;54612.59;;;-145.32;100.00
14041;BME280;7095;51.388;6.196;2023-02-28T08:00:00;54554.94;;;-145.32;100.00
14041;BME280;7095;51.388;6.196;2023-02-28T08:02:37;54554.94;;;-145.32;100.00
14041;BME280;7095;51.388;6.196;2023-02-28T08:05:06;54554.94;;;-145.32;100.00
14041;BME280;7095;51.388;6.196;2023-02-28T08:07:35;54505.22;;;-145.32;100.00
14041;BME280;7095;51.388;6.196;2023-02-28T08:10:07;54525.09;;;-145.32;100.00
14041;BME280;7095;51.388;6.196;2023-02-28T08:12:36;54481.34;;;-145.32;100.00
14041;BME280;7095;51.388;6.196;2023-02-28T08:15:06;54471.41;;;-145.32;100.00
14041;BME280;7095;51.388;6.196;2023-02-28T08:17:35;54513.16;;;-145.32;100.00
14041;BME280;7095;51.388;6.196;2023-02-28T08:20:04;54471.41;;;-145.32;100.00
14041;BME280;7095;51.388;6.196;2023-02-28T08:22:32;54447.53;;;-145.32;100.00
14041;BME280;7095;51.388;6.196;2023-02-28T08:25:01;54437.59;;;-145.32;100.00
14041;BME280;7095;51.388;6.196;2023-02-28T08:27:31;54419.69;;;-145.32;100.00
14041;BME280;7095;51.388;6.196;2023-02-28T08:29:59;54389.88;;;-145.32;100.00
14041;BME280;7095;51.388;6.196;2023-02-28T08:32:28;54409.75;;;-145.32;100.00
14041;BME280;7095;51.388;6.196;2023-02-28T08:34:57;54397.81;;;-145.32;100.00
14041;BME280;7095;51.388;6.196;2023-02-28T08:37:26;54425.66;;;-145.32;100.00
14041;BME280;7095;51.388;6.196;2023-02-28T08:39:54;54324.25;;;-145.32;100.00
14041;BME280;7095;51.388;6.196;2023-02-28T08:42:23;54362.03;;;-145.32;100.00
14041;BME280;7095;51.388;6.196;2023-02-28T08:44:53;54369.97;;;-145.32;100.00
14041;BME280;7095;51.388;6.196;2023-02-28T08:47:21;54330.22;;;-145.32;100.00
14041;BME280;7095;51.388;6.196;2023-02-28T08:49:50;54292.44;;;-145.32;100.00
14041;BME280;7095;51.388;6.196;2023-02-28T08:52:18;54318.28;;;-145.32;100.00
14041;BME280;7095;51.388;6.196;2023-02-28T08:54:47;54286.47;;;-145.32;100.00
14041;BME280;7095;51.388;6.196;2023-02-28T08:57:16;54258.63;;;-145.32;100.00
14041;BME280;7095;51.388;6.196;2023-02-28T08:59:44;54290.44;;;-145.32;100.00
14041;BME280;7095;51.388;6.196;2023-02-28T09:02:15;54242.72;;;-145.32;100.00
14041;BME280;7095;51.388;6.196;2023-02-28T09:04:43;54266.59;;;-145.32;100.00
14041;BME280;7095;51.388;6.196;2023-02-28T09:07:12;54238.75;;;-145.32;100.00
14041;BME280;7095;51.388;6.196;2023-02-28T09:09:43;54274.53;;;-145.32;100.00
14041;BME280;7095;51.388;6.196;2023-02-28T09:12:26;54218.84;;;-145.32;100.00
14041;BME280;7095;51.388;6.196;2023-02-28T09:14:55;54230.78;;;-145.32;100.00
14041;BME280;7095;51.388;6.196;2023-02-28T09:17:24;54167.16;;;-145.32;100.00
14041;BME280;7095;51.388;6.196;2023-02-28T09:19:57;54183.06;;;-145.32;100.00
14041;BME280;7095;51.388;6.196;2023-02-28T09:22:25;54155.22;;;-145.32;100.00
14041;BME280;7095;51.388;6.196;2023-02-28T09:24:54;54161.19;;;-145.32;100.00
14041;BME280;7095;51.388;6.196;2023-02-28T09:27:22;54167.16;;;-145.32;100.00
14041;BME280;7095;51.388;6.196;2023-02-28T09:29:51;54163.19;;;-145.32;100.00
14041;BME280;7095;51.388;6.196;2023-02-28T09:32:19;54175.13;;;-145.32;100.00
14041;BME280;7095;51.388;6.196;2023-02-28T09:34:49;54167.16;;;-145.32;100.00
14041;BME280;7095;51.388;6.196;2023-02-28T09:37:17;54155.22;;;-145.32;100.00
14041;BME280;7095;51.388;6.196;2023-02-28T09:39:46;54103.53;;;-145.32;100.00
14041;BME280;7095;51.388;6.196;2023-02-28T09:42:21;54109.50;;;-145.32;100.00
14041;BME280;7095;51.388;6.196;2023-02-28T09:44:53;54105.50;;;-145.32;100.00
14041;BME280;7095;51.388;6.196;2023-02-28T09:47:27;54111.47;;;-145.32;100.00
14041;BME280;7095;51.388;6.196;2023-02-28T09:50:06;54089.59;;;-145.32;100.00
14041;BME280;7095;51.388;6.196;2023-02-28T09:52:36;54089.59;;;-145.32;100.00
14041;BME280;7095;51.388;6.196;2023-02-28T09:55:19;54119.44;;;-145.32;100.00
14041;BME280;7095;51.388;6.196;2023-02-28T09:57:50;54083.66;;;-145.32;100.00
14041;BME280;7095;51.388;6.196;2023-02-28T10:00:22;54099.56;;;-145.32;100.00
14041;BME280;7095;51.388;6.196;2023-02-28T10:03:04;54069.72;;;-145.32;100.00
14041;BME280;7095;51.388;6.196;2023-02-28T10:05:39;54075.69;;;-145.32;100.00
14041;BME280;7095;51.388;6.196;2023-02-28T10:08:14;54085.63;;;-145.32;93.93
14041;BME280;7095;51.388;6.196;2023-02-28T10:10:45;54075.69;;;-145.32;100.00
14041;BME280;7095;51.388;6.196;2023-02-28T10:13:20;54022.00;;;-145.32;85.19
14041;BME280;7095;51.388;6.196;2023-02-28T10:15:53;54055.81;;;-145.32;93.48
14041;BME280;7095;51.388;6.196;2023-02-28T10:18:26;54051.81;;;-145.32;94.13
14041;BME280;7095;51.388;6.196;2023-02-28T10:20:58;54010.06;;;-145.32;96.19
14041;BME280;7095;51.388;6.196;2023-02-28T10:23:31;54025.97;;;-145.32;91.17
14041;BME280;7095;51.388;6.196;2023-02-28T10:26:03;54002.13;;;-145.32;93.41
14041;BME280;7095;51.388;6.196;2023-02-28T10:28:34;54039.91;;;-145.32;87.19
14041;BME280;7095;51.388;6.196;2023-02-28T10:31:03;54055.81;;;-145.32;88.26
14041;BME280;7095;51.388;6.196;2023-02-28T10:33:33;54016.03;;;-145.32;82.36
14041;BME280;7095;51.388;6.196;2023-02-28T10:36:04;54016.03;;;-145.32;81.19
14041;BME280;7095;51.388;6.196;2023-02-28T10:38:37;54039.91;;;-145.32;87.24
14041;BME280;7095;51.388;6.196;2023-02-28T10:41:08;54039.91;;;-145.32;81.73
14041;BME280;7095;51.388;6.196;2023-02-28T10:43:38;54033.94;;;-145.32;80.55
14041;BME280;7095;51.388;6.196;2023-02-28T10:46:13;53986.22;;;-145.32;83.01
14041;BME280;7095;51.388;6.196;2023-02-28T10:49:02;53990.19;;;-145.32;77.53
14041;BME280;7095;51.388;6.196;2023-02-28T10:51:37;53988.19;;;-145.32;79.96
14041;BME280;7095;51.388;6.196;2023-02-28T10:54:15;53984.22;;;-145.32;69.88
14041;BME280;7095;51.388;6.196;2023-02-28T10:56:44;54004.09;;;-145.32;74.02
14041;BME280;7095;51.388;6.196;2023-02-28T10:59:28;53966.34;;;-145.32;71.44
14041;BME280;7095;51.388;6.196;2023-02-28T11:01:57;53954.41;;;-145.32;74.70
14041;BME280;7095;51.388;6.196;2023-02-28T11:04:35;53974.28;;;-145.32;69.75
14041;BME280;7095;51.388;6.196;2023-02-28T11:07:19;53982.25;;;-145.32;68.48
14041;BME280;7095;51.388;6.196;2023-02-28T11:09:52;53976.28;;;-145.32;69.34
14041;BME280;7095;51.388;6.196;2023-02-28T11:12:23;53980.25;;;-145.32;70.65
14041;BME280;7095;51.388;6.196;2023-02-28T11:14:57;53940.47;;;-145.32;67.13
14041;BME280;7095;51.388;6.196;2023-02-28T11:17:28;53968.31;;;-145.32;66.61
14041;BME280;7095;51.388;6.196;2023-02-28T11:20:00;53938.50;;;-145.32;66.57
14041;BME280;7095;51.388;6.196;2023-02-28T11:23:00;53968.31;;;-145.32;58.13
14041;BME280;7095;51.388;6.196;2023-02-28T11:25:31;53964.34;;;-145.32;63.60
14041;BME280;7095;51.388;6.196;2023-02-28T11:28:02;53968.31;;;-145.32;64.79
14041;BME280;7095;51.388;6.196;2023-02-28T11:30:36;53956.38;;;-145.32;63.24
14041;BME280;7095;51.388;6.196;2023-02-28T11:33:27;53944.47;;;-145.32;59.58
14041;BME280;7095;51.388;6.196;2023-02-28T11:36:03;53936.50;;;-145.32;59.92
14041;BME280;7095;51.388;6.196;2023-02-28T11:38:37;53948.44;;;-145.32;61.50
14041;BME280;7095;51.388;6.196;2023-02-28T11:41:34;53964.34;;;-145.32;57.91
14041;BME280;7095;51.388;6.196;2023-02-28T11:44:28;53944.47;;;-145.32;58.37
14041;BME280;7095;51.388;6.196;2023-02-28T11:47:07;53948.44;;;-145.32;57.77
14041;BME280;7095;51.388;6.196;2023-02-28T11:49:51;53970.31;;;-145.32;58.08
14041;BME280;7095;51.388;6.196;2023-02-28T11:52:35;53948.44;;;-145.32;58.47
14041;BME280;7095;51.388;6.196;2023-02-28T11:55:14;53914.63;;;-145.32;59.66
14041;BME280;7095;51.388;6.196;2023-02-28T11:57:56;53936.50;;;-145.32;59.96
14041;BME280;7095;51.388;6.196;2023-02-28T12:00:47;53966.34;;;-145.32;57.84
14041;BME280;7095;51.388;6.196;2023-02-28T12:03:27;53968.31;;;-145.32;56.09
14041;BME280;7095;51.388;6.196;2023-02-28T12:06:08;53916.63;;;-145.32;58.23
14041;BME280;7095;51.388;6.196;2023-02-28T12:08:51;53916.63;;;-145.32;56.70
14041;BME280;7095;51.388;6.196;2023-02-28T12:11:38;53880.84;;;-145.32;55.81
14041;BME280;7095;51.388;6.196;2023-02-28T12:14:25;53928.56;;;-145.32;55.14
14041;BME280;7095;51.388;6.196;2023-02-28T12:17:05;53900.72;;;-145.32;56.64
14041;BME280;7095;51.388;6.196;2023-02-28T12:19:44;53918.59;;;-145.32;57.11
14041;BME280;7095;51.388;6.196;2023-02-28T12:22:28;53902.69;;;-145.32;52.26
14041;BME280;7095;51.388;6.196;2023-02-28T12:25:22;53900.72;;;-145.32;51.52
14041;BME280;7095;51.388;6.196;2023-02-28T12:27:54;53908.66;;;-145.32;53.31
14041;BME280;7095;51.388;6.196;2023-02-28T12:30:26;53928.56;;;-145.32;54.63
14041;BME280;7095;51.388;6.196;2023-02-28T12:33:01;53916.63;;;-145.32;54.48
14041;BME280;7095;51.388;6.196;2023-02-28T12:35:36;53904.69;;;-145.32;53.79
14041;BME280;7095;51.388;6.196;2023-02-28T12:38:10;53872.88;;;-145.32;51.26
14041;BME280;7095;51.388;6.196;2023-02-28T12:40:44;53882.81;;;-145.32;51.37
14041;BME280;7095;51.388;6.196;2023-02-28T12:43:16;53862.94;;;-145.32;51.62
14041;BME280;7095;51.388;6.196;2023-02-28T12:45:50;53849.03;;;-145.32;52.44
14041;BME280;7095;51.388;6.196;2023-02-28T12:48:25;53854.97;;;-145.32;49.93
14041;BME280;7095;51.388;6.196;2023-02-28T12:50:54;53860.94;;;-145.32;51.81
14041;BME280;7095;51.388;6.196;2023-02-28T12:53:27;53853.00;;;-145.32;48.46
14041;BME280;7095;51.388;6.196;2023-02-28T12:56:08;53853.00;;;-145.32;49.28
14041;BME280;7095;51.388;6.196;2023-02-28T12:58:44;53853.00;;;-145.32;49.43
14041;BME280;7095;51.388;6.196;2023-02-28T13:01:42;53853.00;;;-145.32;48.91
14041;BME280;7095;51.388;6.196;2023-02-28T13:07:49;53854.97;;;-145.32;44.94
14041;BME280;7095;51.388;6.196;2023-02-28T13:10:20;53813.22;;;-145.32;46.77
14041;BME280;7095;51.388;6.196;2023-02-28T13:12:50;53775.47;;;-145.32;46.70
14041;BME280;7095;51.388;6.196;2023-02-28T13:15:23;53753.59;;;-145.32;44.53
14041;BME280;7095;51.388;6.196;2023-02-28T13:17:54;53733.69;;;-145.32;46.04
14041;BME280;7095;51.388;6.196;2023-02-28T13:20:25;53717.78;;;-145.32;44.48